Time;durP1;ratioP1;P1;durP2;ratioP2;P2;SDS_P1;SDS_P2;PMS_P1;PMS_P2;Temp;Humidity;BMP_temperature;BMP_pressure;BME280_temperature;BME280_humidity;BME280_pressure;Samples;Min_cycle;Max_cycle;Signal;HPM_P1;HPM_P2
2024/04/24 00:00:39;;;;;;;0.30;0.30;;;6.00;99.90;;;;;;6389013;22;21227;-89
2024/04/24 00:03:06;;;;;;;0.40;0.40;;;6.10;99.90;;;;;;6388639;22;20269;-90
2024/04/24 00:05:31;;;;;;;0.97;0.97;;;6.10;99.90;;;;;;6471606;22;20273;-89
2024/04/24 00:07:57;;;;;;;0.87;0.73;;;6.10;99.90;;;;;;6388392;22;20254;-89
2024/04/24 00:10:23;;;;;;;0.30;0.30;;;6.10;99.90;;;;;;6346837;22;20250;-89
2024/04/24 00:12:49;;;;;;;1.20;1.20;;;6.00;99.90;;;;;;6385579;22;20365;-90
2024/04/24 00:15:15;;;;;;;0.30;0.30;;;6.10;99.90;;;;;;6429823;22;20809;-89
2024/04/24 00:17:40;;;;;;;0.57;0.57;;;6.10;99.90;;;;;;6430044;22;20258;-88
2024/04/24 00:20:06;;;;;;;0.30;0.30;;;6.10;99.90;;;;;;6429641;22;20296;-89
2024/04/24 00:22:32;;;;;;;0.97;0.97;;;6.10;99.90;;;;;;6418119;22;20258;-90
2024/04/24 00:24:58;;;;;;;0.50;0.50;;;6.20;99.90;;;;;;6515876;21;21011;-89
2024/04/24 00:27:23;;;;;;;0.57;0.57;;;6.10;99.90;;;;;;6474063;22;20265;-87
2024/04/24 00:29:49;;;;;;;0.30;0.30;;;6.20;99.90;;;;;;6472930;22;20293;-89
2024/04/24 00:32:15;;;;;;;1.00;1.00;;;6.30;99.90;;;;;;6431485;22;20266;-90
2024/04/24 00:34:41;;;;;;;0.70;0.70;;;6.40;99.90;;;;;;6431082;22;20266;-89
2024/04/24 00:37:06;;;;;;;1.90;1.80;;;6.50;99.90;;;;;;6430900;21;20238;-91
2024/04/24 00:39:32;;;;;;;0.80;0.80;;;6.40;99.90;;;;;;6473688;22;20272;-88
2024/04/24 00:41:58;;;;;;;0.33;0.33;;;6.40;99.90;;;;;;6431281;22;20265;-89
2024/04/24 00:44:23;;;;;;;0.40;0.40;;;6.40;99.90;;;;;;6390030;22;20274;-90
2024/04/24 00:46:50;;;;;;;0.40;0.40;;;6.20;99.90;;;;;;6472801;22;20258;-91
2024/04/24 00:49:18;;;;;;;0.20;0.20;;;5.90;99.90;;;;;;6390132;22;20262;-91
2024/04/24 00:51:45;;;;;;;0.37;0.37;;;5.90;99.90;;;;;;6517117;22;20533;-90
2024/04/24 00:54:12;;;;;;;0.30;0.30;;;5.90;99.90;;;;;;6432357;22;20360;-89
2024/04/24 00:56:38;;;;;;;1.40;0.50;;;6.10;99.90;;;;;;6390543;22;20266;-89
2024/04/24 00:59:04;;;;;;;0.43;0.43;;;6.10;99.90;;;;;;6473295;22;20367;-89
2024/04/24 01:01:30;;;;;;;0.60;0.60;;;6.20;99.90;;;;;;6430849;22;20258;-89
2024/04/24 01:03:56;;;;;;;0.70;0.40;;;5.90;99.90;;;;;;6472228;21;20268;-92
2024/04/24 01:06:21;;;;;;;0.30;0.30;;;5.70;99.90;;;;;;6430560;22;20238;-90
2024/04/24 01:08:47;;;;;;;0.40;0.40;;;5.50;99.90;;;;;;6431285;22;20715;-91
2024/04/24 01:11:13;;;;;;;0.27;0.27;;;5.40;99.90;;;;;;6431608;22;20300;-92
2024/04/24 01:13:38;;;;;;;3.13;1.20;;;5.40;99.90;;;;;;6429689;22;20365;-92
2024/04/24 01:16:22;;;;;;;0.30;0.30;;;5.40;99.90;;;;;;6426317;21;20297;-91
2024/04/24 01:19:01;;;;;;;0.50;0.50;;;5.70;99.90;;;;;;6468930;22;20282;-90
2024/04/24 01:21:38;;;;;;;0.30;0.30;;;6.30;99.90;;;;;;6511336;22;20238;-89
2024/04/24 01:24:22;;;;;;;0.23;0.23;;;6.50;99.90;;;;;;6510955;22;20300;-88
2024/04/24 01:26:49;;;;;;;1.03;0.50;;;6.50;99.90;;;;;;6509864;22;20308;-88
2024/04/24 01:29:15;;;;;;;0.77;0.77;;;6.60;99.90;;;;;;6513245;21;20262;-89
2024/04/24 01:31:41;;;;;;;0.60;0.60;;;6.60;99.90;;;;;;6430097;22;20340;-89
2024/04/24 01:34:06;;;;;;;0.30;0.30;;;6.60;99.90;;;;;;6430993;21;20282;-89
2024/04/24 01:36:32;;;;;;;1.90;1.80;;;6.60;99.90;;;;;;6473922;22;20622;-89
2024/04/24 01:38:58;;;;;;;0.50;0.50;;;6.70;99.90;;;;;;6432864;22;20258;-90
2024/04/24 01:41:24;;;;;;;0.50;0.50;;;6.70;99.90;;;;;;6474727;22;20296;-88
2024/04/24 01:43:49;;;;;;;0.73;0.73;;;6.70;99.90;;;;;;6391114;22;21133;-89
2024/04/24 01:46:15;;;;;;;0.37;0.37;;;6.70;99.90;;;;;;6474591;22;20261;-88
2024/04/24 01:48:41;;;;;;;0.27;0.27;;;6.80;99.90;;;;;;6475286;22;20745;-88
2024/04/24 01:51:07;;;;;;;1.03;0.93;;;6.70;99.90;;;;;;6474759;22;20266;-88
2024/04/24 01:53:33;;;;;;;0.30;0.30;;;6.70;99.90;;;;;;6391281;22;20828;-88
2024/04/24 01:55:59;;;;;;;0.67;0.67;;;6.60;99.90;;;;;;6432352;22;20300;-90
2024/04/24 01:58:24;;;;;;;0.47;0.47;;;6.60;99.90;;;;;;6430328;22;20254;-89
2024/04/24 02:00:50;;;;;;;1.33;1.00;;;6.70;99.90;;;;;;6432061;22;20785;-88
2024/04/24 02:03:16;;;;;;;1.33;0.40;;;6.60;99.90;;;;;;6472125;22;20246;-89
2024/04/24 02:05:42;;;;;;;0.30;0.30;;;6.80;99.90;;;;;;6385989;22;20278;-89
2024/04/24 02:08:07;;;;;;;0.30;0.30;;;6.80;99.90;;;;;;6469483;22;20448;-89
2024/04/24 02:10:33;;;;;;;0.77;0.77;;;6.90;99.90;;;;;;6512669;22;20305;-88
2024/04/24 02:12:59;;;;;;;0.57;0.57;;;7.00;99.90;;;;;;6427984;21;20266;-88
2024/04/24 02:15:25;;;;;;;0.33;0.33;;;6.90;99.90;;;;;;6428764;22;20273;-89
2024/04/24 02:17:50;;;;;;;0.40;0.40;;;6.80;99.90;;;;;;6388172;22;20296;-88
2024/04/24 02:20:16;;;;;;;0.50;0.50;;;6.90;99.90;;;;;;6431477;22;20304;-90
2024/04/24 02:22:43;;;;;;;0.40;0.40;;;6.90;99.90;;;;;;6474020;22;20356;-89
2024/04/24 02:27:54;;;;;;;0.20;0.20;;;6.90;99.90;;;;;;6517723;21;20238;-91
2024/04/24 02:30:20;;;;;;;0.37;0.37;;;6.40;99.90;;;;;;6475522;22;20234;-90
2024/04/24 02:32:45;;;;;;;0.43;0.43;;;6.10;99.90;;;;;;6473683;22;21099;-92
2024/04/24 02:35:12;;;;;;;0.30;0.30;;;6.10;99.90;;;;;;6433555;22;20278;-89
2024/04/24 02:37:40;;;;;;;1.13;0.67;;;6.10;99.90;;;;;;6474328;22;20266;-91
2024/04/24 02:40:07;;;;;;;0.30;0.30;;;6.20;99.90;;;;;;6474321;21;20230;-90
2024/04/24 02:42:34;;;;;;;0.53;0.53;;;6.20;99.90;;;;;;6434111;22;20274;-90
2024/04/24 02:44:59;;;;;;;0.30;0.30;;;6.10;99.90;;;;;;6475010;22;20257;-89
2024/04/24 02:47:25;;;;;;;0.40;0.40;;;6.10;99.90;;;;;;6474600;22;20644;-91
2024/04/24 02:49:53;;;;;;;0.30;0.30;;;6.30;99.90;;;;;;6471371;22;20266;-91
2024/04/24 02:52:19;;;;;;;0.30;0.30;;;6.30;99.90;;;;;;6511978;22;20308;-90
2024/04/24 02:54:45;;;;;;;0.30;0.30;;;6.40;99.90;;;;;;6428603;22;20226;-89
2024/04/24 02:57:11;;;;;;;0.37;0.37;;;6.40;99.90;;;;;;6469196;22;21095;-89
2024/04/24 02:59:37;;;;;;;0.40;0.40;;;6.20;99.90;;;;;;6469587;22;20288;-90
2024/04/24 03:02:02;;;;;;;0.73;0.73;;;6.20;99.90;;;;;;6469706;22;20295;-90
2024/04/24 03:04:28;;;;;;;0.53;0.53;;;6.10;99.90;;;;;;6472019;22;20452;-89
2024/04/24 03:06:54;;;;;;;0.60;0.60;;;6.10;99.90;;;;;;6472635;21;20226;-88
2024/04/24 03:09:20;;;;;;;0.20;0.20;;;6.20;99.90;;;;;;6474586;22;20268;-88
2024/04/24 03:11:45;;;;;;;0.40;0.40;;;6.20;99.90;;;;;;6430863;22;20384;-90
2024/04/24 03:14:11;;;;;;;0.50;0.50;;;6.20;99.90;;;;;;6474523;22;20363;-88
2024/04/24 03:16:37;;;;;;;0.40;0.40;;;6.20;99.90;;;;;;6432213;22;21167;-89
2024/04/24 03:19:02;;;;;;;0.30;0.30;;;6.10;99.90;;;;;;6389606;21;20230;-89
2024/04/24 03:21:28;;;;;;;0.30;0.30;;;6.10;99.90;;;;;;6475209;22;20301;-88
2024/04/24 03:23:54;;;;;;;1.00;1.00;;;6.10;99.90;;;;;;6431016;22;20570;-89
2024/04/24 03:26:20;;;;;;;0.70;0.70;;;6.10;99.90;;;;;;6474115;22;20363;-88
2024/04/24 03:28:45;;;;;;;0.20;0.20;;;6.10;99.90;;;;;;6515652;22;20633;-89
2024/04/24 03:31:11;;;;;;;1.90;0.80;;;6.10;99.90;;;;;;6431588;21;20376;-89
2024/04/24 03:33:37;;;;;;;1.07;0.50;;;6.10;99.90;;;;;;6517125;22;20238;-87
2024/04/24 03:36:03;;;;;;;1.07;0.97;;;6.10;99.90;;;;;;6473003;22;20258;-88
2024/04/24 03:38:29;;;;;;;0.40;0.40;;;6.20;99.90;;;;;;6432189;22;20301;-89
2024/04/24 03:40:54;;;;;;;0.30;0.30;;;6.00;99.90;;;;;;6431319;22;20254;-88
2024/04/24 03:43:20;;;;;;;0.60;0.60;;;5.80;99.90;;;;;;6431347;22;20262;-88
2024/04/24 03:45:46;;;;;;;0.40;0.40;;;5.80;99.90;;;;;;6471660;22;20234;-87
2024/04/24 03:48:12;;;;;;;0.40;0.40;;;5.80;99.90;;;;;;6474100;22;20683;-90
2024/04/24 03:50:40;;;;;;;0.30;0.30;;;5.70;99.90;;;;;;6516350;22;20293;-89
2024/04/24 03:53:06;;;;;;;0.30;0.30;;;5.70;99.90;;;;;;6390789;22;20360;-90
2024/04/24 03:55:32;;;;;;;0.20;0.20;;;5.80;99.90;;;;;;6473510;22;20273;-88
2024/04/24 03:57:58;;;;;;;0.30;0.30;;;5.80;99.90;;;;;;6431744;21;20293;-89
2024/04/24 04:00:24;;;;;;;0.40;0.40;;;5.90;99.90;;;;;;6517267;22;20268;-90
2024/04/24 04:02:49;;;;;;;4.17;0.60;;;6.00;99.90;;;;;;6391396;22;20473;-90
2024/04/24 04:05:15;;;;;;;0.20;0.20;;;6.00;99.90;;;;;;6432861;22;20265;-89
2024/04/24 04:07:48;;;;;;;0.50;0.50;;;6.10;99.90;;;;;;6517654;22;20250;-90
2024/04/24 04:10:14;;;;;;;0.50;0.50;;;6.20;99.90;;;;;;6475187;21;20307;-89
2024/04/24 04:12:39;;;;;;;0.23;0.23;;;6.20;99.90;;;;;;6475692;22;20238;-89
2024/04/24 04:15:05;;;;;;;0.30;0.30;;;6.40;99.90;;;;;;6432635;22;20367;-89
2024/04/24 04:17:31;;;;;;;0.40;0.40;;;6.30;99.90;;;;;;6474014;22;20262;-91
2024/04/24 04:19:57;;;;;;;0.50;0.50;;;6.20;99.90;;;;;;6472472;22;20289;-88
2024/04/24 04:22:22;;;;;;;0.20;0.20;;;6.20;99.90;;;;;;6328048;22;20272;-89
2024/04/24 04:24:48;;;;;;;0.80;0.80;;;6.20;99.90;;;;;;6369598;22;20224;-89
2024/04/24 04:27:14;;;;;;;0.37;0.37;;;6.40;99.90;;;;;;6290586;22;20415;-89
2024/04/24 04:29:40;;;;;;;0.40;0.40;;;6.50;99.90;;;;;;6366969;22;20536;-89
2024/04/24 04:32:05;;;;;;;0.30;0.30;;;6.40;99.90;;;;;;6326463;22;20255;-89
2024/04/24 04:34:34;;;;;;;0.20;0.20;;;6.30;99.90;;;;;;6288501;22;20727;-89
2024/04/24 04:37:03;;;;;;;0.30;0.30;;;6.20;99.90;;;;;;6366688;22;20224;-90
2024/04/24 04:39:29;;;;;;;0.30;0.30;;;6.10;99.90;;;;;;6328511;22;20850;-89
2024/04/24 04:41:54;;;;;;;0.30;0.30;;;6.20;99.90;;;;;;6327406;22;20252;-88
2024/04/24 04:44:20;;;;;;;0.30;0.30;;;6.20;99.90;;;;;;6325956;22;20281;-90
2024/04/24 04:46:46;;;;;;;0.20;0.20;;;6.20;99.90;;;;;;6286019;22;20359;-91
2024/04/24 04:49:12;;;;;;;0.30;0.30;;;6.20;99.90;;;;;;6367236;22;20260;-88
2024/04/24 04:51:37;;;;;;;0.27;0.27;;;6.20;99.90;;;;;;6368096;22;21086;-89
2024/04/24 04:54:03;;;;;;;0.30;0.30;;;6.20;99.90;;;;;;6434500;22;20292;-90
2024/04/24 04:56:29;;;;;;;0.30;0.30;;;6.30;99.90;;;;;;6512401;22;20312;-89
2024/04/24 04:58:55;;;;;;;0.20;0.20;;;6.20;99.90;;;;;;6512313;22;20797;-90
2024/04/24 05:01:20;;;;;;;0.37;0.37;;;6.30;99.90;;;;;;6512779;22;20269;-89
2024/04/24 05:03:46;;;;;;;0.60;0.60;;;6.30;99.90;;;;;;6513356;22;20234;-91
2024/04/24 05:06:15;;;;;;;0.30;0.30;;;6.30;99.90;;;;;;6513324;22;20285;-90
2024/04/24 05:08:41;;;;;;;1.40;1.40;;;6.30;99.90;;;;;;6428638;22;20509;-88
2024/04/24 05:11:06;;;;;;;0.20;0.20;;;6.30;99.90;;;;;;6470923;22;20998;-89
2024/04/24 05:13:32;;;;;;;0.27;0.27;;;6.40;99.90;;;;;;6473083;22;20261;-89
2024/04/24 05:15:58;;;;;;;0.40;0.40;;;6.40;99.90;;;;;;6431010;21;20605;-89
2024/04/24 05:18:24;;;;;;;0.20;0.20;;;6.50;99.90;;;;;;6517635;22;20348;-88
2024/04/24 05:20:50;;;;;;;0.30;0.30;;;6.50;99.90;;;;;;6431680;22;20262;-90
2024/04/24 05:23:16;;;;;;;0.30;0.30;;;6.60;99.90;;;;;;6518504;22;20288;-89
2024/04/24 05:25:51;;;;;;;0.20;0.20;;;6.60;99.90;;;;;;6472252;22;20308;-90
2024/04/24 05:31:03;;;;;;;0.30;0.30;;;6.70;99.90;;;;;;6520485;21;20282;-89
2024/04/24 05:33:28;;;;;;;0.30;0.30;;;6.90;99.90;;;;;;6478473;22;20365;-89
2024/04/24 05:35:54;;;;;;;0.20;0.20;;;6.90;99.90;;;;;;6428778;22;20284;-92
2024/04/24 05:38:20;;;;;;;0.30;0.30;;;7.00;99.90;;;;;;6388175;22;20315;-89
2024/04/24 05:40:46;;;;;;;0.30;0.30;;;6.90;99.90;;;;;;6471763;22;20354;-90
2024/04/24 05:43:11;;;;;;;0.27;0.27;;;7.00;99.90;;;;;;6470768;21;20262;-89
2024/04/24 05:45:37;;;;;;;0.40;0.40;;;6.90;99.90;;;;;;6429561;22;20525;-90
2024/04/24 05:48:03;;;;;;;1.47;1.23;;;5.40;99.90;;;;;;6429739;22;20364;-91
2024/04/24 05:50:29;;;;;;;0.30;0.30;;;4.80;99.90;;;;;;6470461;22;20281;-89
2024/04/24 05:52:55;;;;;;;0.30;0.30;;;4.60;99.90;;;;;;6458264;22;20258;-90
2024/04/24 05:55:22;;;;;;;0.53;0.53;;;4.60;99.90;;;;;;6471225;22;20261;-90
2024/04/24 05:57:51;;;;;;;0.97;0.93;;;4.80;99.90;;;;;;6474527;22;20682;-90
2024/04/24 06:00:17;;;;;;;0.47;0.47;;;5.10;99.90;;;;;;6474813;22;20246;-89
2024/04/24 06:02:43;;;;;;;0.30;0.30;;;5.30;99.90;;;;;;6432281;22;20778;-88
2024/04/24 06:05:19;;;;;;;0.67;0.67;;;5.60;99.90;;;;;;6474484;22;20640;-91
2024/04/24 06:07:44;;;;;;;1.33;0.67;;;6.80;99.90;;;;;;6474566;22;20332;-91
2024/04/24 06:10:13;;;;;;;0.20;0.20;;;8.40;99.90;;;;;;6432818;21;20245;-92
2024/04/24 06:12:44;;;;;;;0.40;0.40;;;9.40;99.90;;;;;;6476917;22;20238;-91
2024/04/24 06:15:10;;;;;;;0.40;0.40;;;9.50;99.90;;;;;;6475379;22;20266;-90
2024/04/24 06:17:36;;;;;;;0.97;0.67;;;9.50;99.90;;;;;;6475394;22;20265;-91
2024/04/24 06:20:07;;;;;;;0.30;0.30;;;9.70;99.90;;;;;;6517760;22;20671;-90
2024/04/24 06:22:33;;;;;;;0.27;0.27;;;10.10;99.90;;;;;;6433474;22;20261;-92
2024/04/24 06:24:59;;;;;;;0.20;0.20;;;8.90;99.90;;;;;;6515787;21;20492;-92
2024/04/24 06:27:27;;;;;;;0.30;0.30;;;8.30;99.90;;;;;;6475852;22;20634;-89
2024/04/24 06:29:57;;;;;;;2.03;0.70;;;8.00;99.90;;;;;;6475692;22;20313;-88
2024/04/24 06:32:23;;;;;;;0.20;0.20;;;8.00;99.90;;;;;;6475343;22;20295;-88
2024/04/24 06:34:48;;;;;;;0.30;0.30;;;7.90;99.90;;;;;;6431967;22;20265;-88
2024/04/24 06:37:14;;;;;;;0.20;0.20;;;7.80;99.90;;;;;;6432893;21;20447;-89
2024/04/24 06:39:40;;;;;;;0.30;0.30;;;7.20;99.90;;;;;;6518441;22;20246;-90
2024/04/24 06:42:08;;;;;;;0.33;0.33;;;6.80;99.90;;;;;;6475705;22;20265;-91
2024/04/24 06:44:34;;;;;;;0.30;0.30;;;6.50;99.90;;;;;;6476143;22;20277;-90
2024/04/24 06:47:03;;;;;;;0.40;0.40;;;6.60;99.90;;;;;;6331761;22;20306;-90
2024/04/24 06:49:28;;;;;;;0.30;0.30;;;6.70;99.90;;;;;;6350167;22;20256;-90
2024/04/24 06:51:54;;;;;;;0.40;0.40;;;7.00;99.90;;;;;;6344818;22;20232;-90
2024/04/24 06:54:20;;;;;;;0.33;0.33;;;7.60;99.90;;;;;;6332936;22;20236;-90
2024/04/24 06:56:46;;;;;;;0.33;0.33;;;8.50;99.90;;;;;;6372471;22;20299;-90
2024/04/24 06:59:12;;;;;;;0.27;0.27;;;8.70;99.90;;;;;;6331157;22;20291;-90
2024/04/24 07:01:37;;;;;;;1.57;0.30;;;8.70;99.90;;;;;;6372338;22;21145;-89
2024/04/24 07:04:03;;;;;;;0.30;0.30;;;8.90;99.90;;;;;;6330184;22;20329;-90
2024/04/24 07:06:29;;;;;;;0.40;0.40;;;8.60;99.90;;;;;;6331297;22;20228;-88
2024/04/24 07:08:57;;;;;;;0.20;0.20;;;8.60;99.90;;;;;;6331768;22;20299;-89
2024/04/24 07:11:23;;;;;;;0.60;0.47;;;9.30;99.90;;;;;;6332164;22;20287;-89
2024/04/24 07:13:48;;;;;;;0.30;0.30;;;9.80;99.90;;;;;;6370575;22;20264;-90
2024/04/24 07:16:17;;;;;;;0.20;0.20;;;9.50;99.90;;;;;;6330583;22;20264;-89
2024/04/24 07:18:43;;;;;;;0.30;0.30;;;8.90;99.90;;;;;;6329348;22;20348;-89
2024/04/24 07:21:09;;;;;;;0.20;0.20;;;8.20;99.90;;;;;;6331025;22;20320;-88
2024/04/24 07:23:35;;;;;;;0.20;0.20;;;8.00;99.90;;;;;;6344207;22;20303;-89
2024/04/24 07:26:00;;;;;;;0.50;0.50;;;7.80;99.90;;;;;;6389537;22;20380;-90
2024/04/24 07:28:26;;;;;;;0.20;0.20;;;7.10;99.90;;;;;;6515812;22;20357;-89
2024/04/24 07:30:52;;;;;;;0.30;0.30;;;6.80;99.90;;;;;;6512004;21;21103;-88
2024/04/24 07:33:18;;;;;;;1.80;1.70;;;6.90;99.90;;;;;;6427847;22;20269;-87
2024/04/24 07:35:43;;;;;;;0.37;0.37;;;7.90;99.90;;;;;;6427299;22;20258;-86
2024/04/24 07:38:11;;;;;;;0.67;0.67;;;8.80;99.90;;;;;;6427755;22;20402;-89
2024/04/24 07:40:37;;;;;;;0.30;0.30;;;8.10;99.90;;;;;;6426743;22;20750;-86
2024/04/24 07:43:03;;;;;;;0.50;0.50;;;7.90;99.90;;;;;;6426637;22;20325;-85
2024/04/24 07:45:29;;;;;;;0.30;0.30;;;7.70;99.90;;;;;;6388515;22;20229;-85
2024/04/24 07:47:54;;;;;;;0.73;0.47;;;7.60;99.90;;;;;;6390593;22;20568;-88
2024/04/24 07:50:20;;;;;;;0.30;0.30;;;7.70;99.90;;;;;;6473372;22;20280;-87
2024/04/24 07:52:48;;;;;;;0.40;0.40;;;7.70;99.90;;;;;;6387534;22;20336;-89
2024/04/24 07:55:14;;;;;;;0.70;0.70;;;7.80;99.90;;;;;;6390241;22;20336;-88
2024/04/24 07:57:40;;;;;;;0.30;0.30;;;8.10;99.90;;;;;;6429723;22;20254;-86
2024/04/24 08:00:06;;;;;;;3.77;3.50;;;8.90;99.90;;;;;;6391291;22;20250;-88
2024/04/24 08:02:34;;;;;;;0.47;0.47;;;9.30;99.90;;;;;;6437902;22;20318;-89
2024/04/24 08:05:00;;;;;;;0.30;0.30;;;9.10;99.90;;;;;;6429696;22;20250;-88
2024/04/24 08:07:26;;;;;;;0.20;0.20;;;9.40;99.90;;;;;;6425558;22;20301;-86
2024/04/24 08:09:51;;;;;;;0.20;0.20;;;9.50;99.90;;;;;;6345988;22;21067;-89
2024/04/24 08:12:17;;;;;;;0.60;0.40;;;9.00;99.90;;;;;;6428072;22;20225;-87
2024/04/24 08:14:43;;;;;;;0.33;0.33;;;8.60;99.90;;;;;;6383466;21;20280;-87
2024/04/24 08:17:09;;;;;;;1.03;1.03;;;9.10;99.90;;;;;;6431224;22;20239;-87
2024/04/24 08:19:35;;;;;;;0.40;0.40;;;9.70;99.90;;;;;;6389187;22;20285;-86
2024/04/24 08:22:01;;;;;;;0.30;0.30;;;9.00;99.90;;;;;;6429719;22;20262;-88
2024/04/24 08:24:26;;;;;;;0.30;0.30;;;8.90;99.90;;;;;;6429644;22;20642;-86
2024/04/24 08:26:52;;;;;;;0.30;0.30;;;9.80;99.90;;;;;;6430291;22;20266;-86
2024/04/24 08:29:18;;;;;;;0.57;0.40;;;10.20;99.90;;;;;;6514322;22;20242;-86
2024/04/24 08:31:43;;;;;;;0.97;0.97;;;10.10;99.90;;;;;;6471789;22;20353;-87
2024/04/24 08:34:59;;;;;;;;;;;;;;;;;;;;;
2024/04/24 08:37:31;;;;;;;1.50;0.73;;;9.30;99.90;;;;;;6514208;22;20266;-88
2024/04/24 08:39:57;;;;;;;0.30;0.30;;;9.10;99.90;;;;;;6471384;22;20602;-85
2024/04/24 08:42:24;;;;;;;1.47;1.47;;;9.90;99.90;;;;;;6471735;22;20296;-87
2024/04/24 08:44:51;;;;;;;0.27;0.27;;;10.50;99.90;;;;;;6514545;22;20258;-88
2024/04/24 08:47:19;;;;;;;0.20;0.20;;;10.30;99.90;;;;;;6515352;22;20899;-86
2024/04/24 08:49:47;;;;;;;1.03;1.03;;;10.30;99.90;;;;;;6472939;22;20262;-87
2024/04/24 08:52:17;;;;;;;0.67;0.40;;;9.90;99.90;;;;;;6472394;22;20283;-87
2024/04/24 08:54:44;;;;;;;0.43;0.43;;;8.90;99.90;;;;;;6515733;22;20326;-89
2024/04/24 08:57:13;;;;;;;0.60;0.60;;;8.60;99.90;;;;;;6507460;21;20253;-88
2024/04/24 08:59:46;;;;;;;0.50;0.50;;;9.20;99.90;;;;;;6496385;21;20234;-88
2024/04/24 09:02:14;;;;;;;0.20;0.20;;;10.00;99.90;;;;;;6432740;22;20238;-88
2024/04/24 09:04:43;;;;;;;0.30;0.30;;;10.40;99.90;;;;;;6429351;22;20262;-90
2024/04/24 09:07:11;;;;;;;0.30;0.30;;;9.40;99.90;;;;;;6514247;22;20262;-88
2024/04/24 09:09:37;;;;;;;0.30;0.30;;;8.10;99.90;;;;;;6428070;22;20266;-87
2024/04/24 09:12:07;;;;;;;0.20;0.20;;;8.30;99.90;;;;;;6467993;22;20280;-87
2024/04/24 09:14:33;;;;;;;0.73;0.60;;;8.30;99.90;;;;;;6472933;21;20504;-89
2024/04/24 09:17:00;;;;;;;0.10;0.10;;;8.70;99.90;;;;;;6517011;22;20250;-88
2024/04/24 09:19:27;;;;;;;0.40;0.40;;;9.40;99.90;;;;;;6472211;22;20266;-86
2024/04/24 09:21:53;;;;;;;0.20;0.20;;;9.80;99.90;;;;;;6370523;22;20260;-89
2024/04/24 09:24:19;;;;;;;0.20;0.20;;;10.00;99.90;;;;;;6288956;22;21159;-86
2024/04/24 09:26:47;;;;;;;1.10;0.50;;;9.50;99.90;;;;;;6412045;22;20378;-87
2024/04/24 09:29:14;;;;;;;0.20;0.20;;;9.00;99.90;;;;;;6370944;22;20236;-87
2024/04/24 09:31:40;;;;;;;0.40;0.40;;;8.80;99.90;;;;;;6411978;22;20260;-86
2024/04/24 09:34:10;;;;;;;10.80;0.70;;;8.60;99.90;;;;;;6411442;22;20343;-90
2024/04/24 09:36:40;;;;;;;0.57;0.57;;;8.70;99.90;;;;;;6329853;22;20315;-90
2024/04/24 09:39:13;;;;;;;0.20;0.20;;;8.50;99.90;;;;;;6330890;22;20264;-90
2024/04/24 09:41:51;;;;;;;0.30;0.30;;;8.60;99.90;;;;;;6315424;22;20545;-87
2024/04/24 09:44:18;;;;;;;0.60;0.60;;;8.60;99.90;;;;;;6371366;22;20271;-87
2024/04/24 09:46:48;;;;;;;0.20;0.20;;;8.80;99.90;;;;;;6329105;22;20367;-87
2024/04/24 09:49:14;;;;;;;0.20;0.20;;;8.80;99.90;;;;;;6330625;22;20340;-88
2024/04/24 09:51:41;;;;;;;0.30;0.30;;;8.60;99.90;;;;;;6330721;22;20324;-86
2024/04/24 09:54:07;;;;;;;0.40;0.40;;;9.10;99.90;;;;;;6515181;22;20254;-88
2024/04/24 09:56:41;;;;;;;0.73;0.70;;;9.90;99.90;;;;;;6388630;21;20258;-91
2024/04/24 09:59:09;;;;;;;0.30;0.30;;;9.90;99.90;;;;;;6420405;22;20237;-92
2024/04/24 10:01:37;;;;;;;0.30;0.30;;;10.10;99.90;;;;;;6341056;22;20263;-89
2024/04/24 10:04:03;;;;;;;0.30;0.30;;;10.50;99.90;;;;;;6381770;22;20681;-88
2024/04/24 10:06:33;;;;;;;1.50;0.40;;;9.90;99.90;;;;;;6381491;22;20561;-91
2024/04/24 10:09:00;;;;;;;0.47;0.47;;;10.70;99.90;;;;;;6381247;22;20258;-89
2024/04/24 10:11:33;;;;;;;0.30;0.30;;;10.60;99.90;;;;;;6465212;22;20302;-88
2024/04/24 10:14:01;;;;;;;0.63;0.63;;;10.50;99.90;;;;;;6466036;22;20321;-88
2024/04/24 10:16:28;;;;;;;0.33;0.33;;;9.70;99.90;;;;;;6380667;22;20686;-89
2024/04/24 10:18:55;;;;;;;0.60;0.33;;;10.30;99.90;;;;;;6381004;22;20301;-88
2024/04/24 10:21:25;;;;;;;0.10;0.10;;;10.20;99.90;;;;;;6383669;22;20291;-87
2024/04/24 10:23:52;;;;;;;1.50;0.40;;;10.00;99.90;;;;;;6382581;22;20259;-89
2024/04/24 10:26:19;;;;;;;1.50;0.37;;;9.80;99.90;;;;;;6382212;22;20322;-89
2024/04/24 10:28:47;;;;;;;0.30;0.30;;;8.80;99.90;;;;;;6341139;22;20293;-93
2024/04/24 10:31:14;;;;;;;0.20;0.20;;;8.00;99.90;;;;;;6470305;22;20262;-92
2024/04/24 10:33:43;;;;;;;0.20;0.20;;;7.50;99.90;;;;;;6432370;22;20321;-90
2024/04/24 10:36:10;;;;;;;0.20;0.20;;;7.50;99.90;;;;;;6519748;22;20555;-92
2024/04/24 10:38:38;;;;;;;0.30;0.30;;;7.80;99.90;;;;;;6530842;21;20237;-91
2024/04/24 10:41:21;;;;;;;0.20;0.20;;;8.30;99.90;;;;;;6519178;22;20238;-93
2024/04/24 10:43:48;;;;;;;0.30;0.30;;;8.30;99.90;;;;;;6482076;22;20243;-94
2024/04/24 10:46:20;;;;;;;0.63;0.43;;;7.80;99.90;;;;;;6518244;22;20351;-89
2024/04/24 10:48:56;;;;;;;11.23;0.50;;;7.90;99.90;;;;;;6459031;22;20757;-91
2024/04/24 10:51:32;;;;;;;0.20;0.20;;;8.20;99.90;;;;;;6512821;22;20277;-94
2024/04/24 10:54:07;;;;;;;0.20;0.20;;;8.40;99.90;;;;;;6371172;22;20463;-90
2024/04/24 10:56:49;;;;;;;;;;;;;;;;;;;;;
2024/04/24 10:59:16;;;;;;;0.20;0.20;;;8.60;99.90;;;;;;6370826;22;20232;-93
2024/04/24 11:01:45;;;;;;;0.20;0.20;;;8.60;99.90;;;;;;6368666;22;20430;-90
2024/04/24 11:04:12;;;;;;;0.23;0.23;;;8.20;99.90;;;;;;6325976;22;20370;-93
2024/04/24 11:06:39;;;;;;;3.13;0.67;;;8.30;99.90;;;;;;6367229;22;20323;-90
2024/04/24 11:09:05;;;;;;;2.00;0.97;;;8.30;99.90;;;;;;6285770;22;20348;-88
2024/04/24 11:11:31;;;;;;;0.33;0.33;;;8.30;99.90;;;;;;6367408;22;20961;-89
2024/04/24 11:14:05;;;;;;;0.20;0.20;;;8.40;99.90;;;;;;6368629;22;20232;-91
2024/04/24 11:16:32;;;;;;;0.20;0.20;;;8.40;99.90;;;;;;6368706;22;20259;-93
2024/04/24 11:18:58;;;;;;;0.30;0.30;;;8.40;99.90;;;;;;6329719;22;20268;-93
2024/04/24 11:21:27;;;;;;;0.20;0.20;;;8.60;99.90;;;;;;6357194;22;21054;-93
2024/04/24 11:23:59;;;;;;;0.30;0.30;;;8.60;99.90;;;;;;6321286;22;20721;-91
2024/04/24 11:26:35;;;;;;;1.60;1.43;;;9.00;99.90;;;;;;6500935;21;20250;-92
2024/04/24 11:29:04;;;;;;;0.37;0.37;;;9.10;99.90;;;;;;6516773;22;20260;-91
2024/04/24 11:31:38;;;;;;;0.20;0.20;;;9.50;99.90;;;;;;6515944;22;20308;-92
2024/04/24 11:34:07;;;;;;;2.23;0.47;;;9.70;99.90;;;;;;6419088;22;20262;-93
2024/04/24 11:36:33;;;;;;;0.40;0.40;;;9.50;99.90;;;;;;6424454;21;20253;-90
2024/04/24 11:39:00;;;;;;;0.83;0.40;;;9.10;99.90;;;;;;6473237;22;20270;-92
2024/04/24 11:41:26;;;;;;;1.27;1.17;;;9.00;99.90;;;;;;6470674;21;20354;-91
2024/04/24 11:43:55;;;;;;;0.63;0.50;;;9.10;99.90;;;;;;6512244;22;20282;-92
2024/04/24 11:46:22;;;;;;;0.20;0.20;;;10.00;99.90;;;;;;6510939;22;20317;-90
2024/04/24 11:49:00;;;;;;;0.20;0.20;;;9.70;99.90;;;;;;6467361;22;20261;-93
2024/04/24 11:51:27;;;;;;;0.50;0.50;;;9.30;99.90;;;;;;6468204;22;20260;-94
2024/04/24 11:54:01;;;;;;;0.30;0.30;;;8.80;99.90;;;;;;6467829;22;20254;-91
2024/04/24 11:56:30;;;;;;;0.20;0.20;;;8.80;99.90;;;;;;6428460;21;20590;-92
2024/04/24 11:59:14;;;;;;;2.47;0.70;;;8.40;99.90;;;;;;6432169;22;20281;-87
2024/04/24 12:01:40;;;;;;;0.30;0.30;;;8.60;99.90;;;;;;6473423;22;20266;-92
2024/04/24 12:04:09;;;;;;;0.17;0.17;;;8.80;99.90;;;;;;6472074;22;20360;-90
2024/04/24 12:06:45;;;;;;;0.20;0.20;;;8.80;99.90;;;;;;6512307;22;20258;-90
2024/04/24 12:09:11;;;;;;;0.20;0.20;;;9.10;99.90;;;;;;6469560;22;20308;-94
2024/04/24 12:11:43;;;;;;;0.30;0.30;;;9.40;99.90;;;;;;6510041;21;20238;-92
2024/04/24 12:14:29;;;;;;;1.13;1.13;;;9.20;99.90;;;;;;6513403;22;20293;-92
2024/04/24 12:16:54;;;;;;;0.20;0.20;;;9.40;99.90;;;;;;6510788;22;20366;-91
2024/04/24 12:19:35;;;;;;;0.83;0.30;;;9.60;99.90;;;;;;6467675;22;20254;-92
2024/04/24 12:22:04;;;;;;;0.93;0.60;;;9.40;99.90;;;;;;6428258;22;20258;-92
2024/04/24 12:24:39;;;;;;;0.20;0.20;;;9.10;99.90;;;;;;6471478;22;20288;-91
2024/04/24 12:27:17;;;;;;;0.10;0.10;;;9.40;99.90;;;;;;6472313;22;20376;-91
2024/04/24 12:29:43;;;;;;;0.33;0.23;;;9.90;99.90;;;;;;6472768;21;20269;-89
2024/04/24 12:32:10;;;;;;;0.40;0.30;;;10.00;99.90;;;;;;6432129;22;20238;-90
2024/04/24 12:34:38;;;;;;;0.40;0.40;;;10.10;99.90;;;;;;6458389;22;20801;-90
2024/04/24 12:37:06;;;;;;;0.50;0.50;;;9.80;99.90;;;;;;6471358;22;20326;-91
2024/04/24 12:39:32;;;;;;;0.20;0.20;;;9.90;99.90;;;;;;6459892;22;20292;-93
2024/04/24 12:42:03;;;;;;;0.93;0.80;;;10.20;99.90;;;;;;6473690;22;20296;-90
2024/04/24 12:44:31;;;;;;;0.20;0.20;;;10.70;99.90;;;;;;6429800;21;20237;-91
2024/04/24 12:46:57;;;;;;;0.53;0.53;;;10.90;99.90;;;;;;6331333;22;20288;-92
2024/04/24 12:49:25;;;;;;;0.67;0.67;;;10.20;99.90;;;;;;6289524;22;20268;-91
2024/04/24 12:51:53;;;;;;;1.30;0.70;;;10.00;99.90;;;;;;6344631;22;20337;-90
2024/04/24 12:54:19;;;;;;;0.20;0.20;;;9.90;99.90;;;;;;6360762;22;20314;-92
2024/04/24 12:56:47;;;;;;;0.10;0.10;;;9.60;99.90;;;;;;6330064;22;20618;-91
2024/04/24 12:59:14;;;;;;;0.30;0.30;;;9.60;1.00;;;;;;6291182;22;20278;-91
2024/04/24 13:01:40;;;;;;;5.60;0.63;;;9.60;1.00;;;;;;6411977;22;20260;-90
2024/04/24 13:04:21;;;;;;;0.80;0.47;;;9.70;99.90;;;;;;6372232;22;20298;-90